Time;durP1;ratioP1;P1;durP2;ratioP2;P2;SDS_P1;SDS_P2;PMS_P1;PMS_P2;Temp;Humidity;BMP_temperature;BMP_pressure;BME280_temperature;BME280_humidity;BME280_pressure;Samples;Min_cycle;Max_cycle;Signal;HPM_P1;HPM_P2
2023/09/20 00:01:36;;;;;;;5.23;1.90;;;19.10;1.00;;;;;;4984701;28;20443;-79
2023/09/20 00:04:07;;;;;;;5.67;2.30;;;19.10;1.00;;;;;;4983653;28;20538;-79
2023/09/20 00:06:33;;;;;;;4.50;2.10;;;19.10;1.00;;;;;;4978815;28;20474;-78
2023/09/20 00:09:05;;;;;;;7.73;2.30;;;19.00;99.90;;;;;;4978915;28;20479;-78
2023/09/20 00:11:34;;;;;;;4.60;1.63;;;19.10;1.00;;;;;;4978724;28;20463;-78
2023/09/20 00:14:12;;;;;;;2.90;1.60;;;19.00;99.90;;;;;;4978477;28;20469;-78
2023/09/20 00:16:39;;;;;;;4.53;2.10;;;19.00;28.40;;;;;;4977678;28;20543;-78
2023/09/20 00:19:07;;;;;;;4.43;2.27;;;19.00;1.00;;;;;;4977873;28;20467;-79
2023/09/20 00:21:43;;;;;;;4.40;1.80;;;19.00;1.00;;;;;;4978181;28;20539;-79
2023/09/20 00:24:10;;;;;;;3.57;1.50;;;18.90;1.00;;;;;;4978639;28;20454;-80
2023/09/20 00:26:38;;;;;;;8.73;1.63;;;18.90;1.00;;;;;;4979485;28;20467;-79
2023/09/20 00:29:09;;;;;;;4.80;2.07;;;18.90;1.00;;;;;;4978574;28;20480;-79
2023/09/20 00:31:38;;;;;;;6.33;2.20;;;18.90;1.00;;;;;;4978514;28;20942;-79
2023/09/20 00:34:07;;;;;;;4.13;1.93;;;18.90;99.90;;;;;;4978580;28;20539;-79
2023/09/20 00:36:34;;;;;;;7.43;1.80;;;18.90;99.90;;;;;;4978984;28;20459;-79
2023/09/20 00:39:05;;;;;;;5.03;2.10;;;18.80;99.90;;;;;;4978486;28;21153;-79
2023/09/20 00:41:47;;;;;;;6.50;1.90;;;18.80;99.90;;;;;;4979268;28;20997;-78
2023/09/20 00:44:19;;;;;;;6.00;2.10;;;18.70;99.90;;;;;;4977750;28;20471;-79
2023/09/20 00:46:51;;;;;;;7.57;1.90;;;18.70;99.90;;;;;;4979796;28;20463;-81
2023/09/20 00:49:22;;;;;;;7.73;2.33;;;18.60;99.90;;;;;;4979902;28;20485;-79
2023/09/20 00:51:49;;;;;;;4.80;2.13;;;18.70;99.90;;;;;;4978354;28;20455;-78
2023/09/20 00:54:18;;;;;;;7.23;1.90;;;18.70;99.90;;;;;;4977668;28;20468;-78
2023/09/20 00:56:52;;;;;;;3.43;2.30;;;18.70;99.90;;;;;;4978305;28;20455;-79
2023/09/20 00:59:24;;;;;;;3.87;1.50;;;18.80;99.90;;;;;;4977559;28;20490;-79
2023/09/20 01:01:51;;;;;;;5.50;1.80;;;18.90;99.90;;;;;;4978218;28;20975;-79
2023/09/20 01:04:23;;;;;;;5.30;2.13;;;18.80;99.90;;;;;;4978427;28;20459;-80
2023/09/20 01:06:52;;;;;;;2.80;1.50;;;18.80;99.90;;;;;;4977315;28;20490;-79
2023/09/20 01:09:22;;;;;;;5.97;1.93;;;18.80;99.90;;;;;;4977534;28;20725;-79
2023/09/20 01:11:49;;;;;;;7.30;2.13;;;18.90;99.90;;;;;;4978036;28;20459;-79
2023/09/20 01:14:21;;;;;;;6.47;1.93;;;18.90;99.90;;;;;;4978007;28;20454;-79
2023/09/20 01:16:53;;;;;;;4.60;1.67;;;18.90;99.90;;;;;;4977635;28;20498;-79
2023/09/20 01:19:20;;;;;;;5.03;1.90;;;18.90;99.90;;;;;;4976911;28;21075;-79
2023/09/20 01:21:51;;;;;;;4.90;1.70;;;18.90;99.90;;;;;;4977944;28;20458;-79
2023/09/20 01:24:20;;;;;;;3.27;1.70;;;18.90;99.90;;;;;;4977845;28;20465;-79
2023/09/20 01:26:57;;;;;;;5.03;1.73;;;18.90;99.90;;;;;;4977171;28;20667;-77
2023/09/20 01:29:30;;;;;;;7.47;2.47;;;18.90;99.90;;;;;;4977119;28;20545;-79
2023/09/20 01:32:03;;;;;;;3.23;1.87;;;18.90;99.90;;;;;;4977370;28;20546;-79
2023/09/20 01:34:32;;;;;;;4.40;2.07;;;18.90;99.90;;;;;;4977242;28;20554;-80
2023/09/20 01:37:10;;;;;;;3.87;1.90;;;18.80;99.90;;;;;;4977608;28;20463;-79
2023/09/20 01:39:38;;;;;;;8.10;2.20;;;18.80;99.90;;;;;;4977557;28;20479;-80
2023/09/20 01:42:17;;;;;;;5.90;1.80;;;18.80;99.90;;;;;;4977597;28;20498;-78
2023/09/20 01:44:49;;;;;;;2.13;1.40;;;18.70;99.90;;;;;;4977673;28;20502;-78
2023/09/20 01:47:17;;;;;;;5.50;1.80;;;18.70;99.90;;;;;;4976827;28;20835;-79
2023/09/20 01:49:46;;;;;;;3.97;1.93;;;18.80;1.00;;;;;;4976724;28;20479;-78
2023/09/20 01:52:19;;;;;;;4.40;1.77;;;18.70;1.00;;;;;;4977217;28;20969;-79
2023/09/20 01:54:48;;;;;;;3.50;1.63;;;18.60;1.00;;;;;;4971150;28;20542;-79
2023/09/20 01:57:18;;;;;;;3.70;2.07;;;18.60;1.00;;;;;;4976712;28;20460;-79
2023/09/20 01:59:47;;;;;;;5.90;2.20;;;18.50;1.00;;;;;;4976632;28;20859;-79
2023/09/20 02:02:14;;;;;;;3.50;1.77;;;18.40;1.00;;;;;;4976604;28;20482;-78
2023/09/20 02:04:42;;;;;;;3.50;1.63;;;18.40;1.00;;;;;;4976520;28;20467;-79
2023/09/20 02:07:10;;;;;;;2.93;1.43;;;18.50;1.00;;;;;;4976502;28;20456;-79
2023/09/20 02:09:38;;;;;;;5.03;2.20;;;18.50;1.00;;;;;;4976811;28;20483;-79
2023/09/20 02:12:05;;;;;;;4.33;1.73;;;18.40;1.00;;;;;;4973094;28;20462;-79
2023/09/20 02:14:32;;;;;;;3.33;1.60;;;18.40;1.00;;;;;;4977001;28;20535;-79
2023/09/20 02:16:59;;;;;;;3.73;2.70;;;18.50;1.00;;;;;;4976578;28;20466;-79
2023/09/20 02:19:25;;;;;;;5.37;2.17;;;18.30;1.00;;;;;;4975651;28;20479;-79
2023/09/20 02:21:53;;;;;;;7.10;2.30;;;18.30;1.00;;;;;;4976873;28;20491;-79
2023/09/20 02:24:23;;;;;;;4.50;2.17;;;18.30;1.00;;;;;;4976703;28;20494;-79
2023/09/20 02:26:51;;;;;;;4.43;2.00;;;18.30;1.00;;;;;;4974744;28;20982;-80
2023/09/20 02:29:17;;;;;;;4.63;1.40;;;18.20;1.00;;;;;;4976624;28;20514;-79
2023/09/20 02:31:46;;;;;;;9.43;2.27;;;18.10;1.00;;;;;;4969740;28;20464;-80
2023/09/20 02:34:14;;;;;;;5.20;2.17;;;18.10;1.00;;;;;;4977583;28;20466;-80
2023/09/20 02:36:40;;;;;;;5.23;2.23;;;18.10;1.00;;;;;;4979267;28;20454;-77
2023/09/20 02:39:09;;;;;;;5.30;1.70;;;18.20;1.00;;;;;;4981233;28;20528;-78
2023/09/20 02:41:36;;;;;;;6.03;1.83;;;18.10;1.00;;;;;;4981655;28;20487;-79
2023/09/20 02:44:04;;;;;;;5.47;2.10;;;18.10;1.00;;;;;;4981898;28;20458;-79
2023/09/20 02:46:32;;;;;;;6.73;2.13;;;18.00;1.00;;;;;;4982079;28;20466;-78
2023/09/20 02:48:59;;;;;;;3.90;2.10;;;17.90;1.00;;;;;;4980356;28;20541;-79
2023/09/20 02:51:25;;;;;;;7.70;1.80;;;17.90;1.00;;;;;;4976761;28;20505;-78
2023/09/20 02:53:52;;;;;;;4.10;2.13;;;18.10;1.00;;;;;;4977213;28;20834;-79
2023/09/20 02:56:19;;;;;;;9.43;2.70;;;18.00;1.00;;;;;;4975853;28;20463;-79
2023/09/20 02:58:48;;;;;;;5.93;1.90;;;18.00;1.00;;;;;;4975826;28;20479;-79
2023/09/20 03:01:22;;;;;;;5.97;2.40;;;18.00;1.00;;;;;;4976272;28;20534;-79
2023/09/20 03:03:59;;;;;;;3.77;2.27;;;17.90;1.00;;;;;;4976872;28;20458;-79
2023/09/20 03:06:27;;;;;;;6.70;2.20;;;17.90;1.00;;;;;;4976580;28;20984;-79
2023/09/20 03:08:55;;;;;;;5.70;2.10;;;17.90;1.00;;;;;;4976029;28;20489;-79
2023/09/20 03:11:24;;;;;;;4.40;2.00;;;18.00;1.00;;;;;;4976654;28;20462;-79
2023/09/20 03:13:51;;;;;;;4.47;1.73;;;17.90;1.00;;;;;;4976746;28;20465;-79
2023/09/20 03:16:19;;;;;;;4.20;1.87;;;17.90;1.00;;;;;;4976105;28;20538;-79
2023/09/20 03:18:46;;;;;;;5.77;2.30;;;17.90;1.00;;;;;;4974917;28;20482;-78
2023/09/20 03:21:14;;;;;;;5.60;2.23;;;17.90;1.00;;;;;;4975646;28;20494;-79
2023/09/20 03:23:41;;;;;;;3.77;1.80;;;17.90;1.00;;;;;;4968243;28;20474;-79
2023/09/20 03:26:08;;;;;;;4.03;1.97;;;17.90;1.00;;;;;;4975818;28;20961;-79
2023/09/20 03:28:35;;;;;;;3.73;1.93;;;17.90;1.00;;;;;;4975422;28;20490;-79
2023/09/20 03:31:06;;;;;;;11.27;1.90;;;17.80;1.00;;;;;;4979207;28;20445;-79
2023/09/20 03:33:34;;;;;;;3.70;2.00;;;17.80;1.00;;;;;;4979510;28;20457;-78
2023/09/20 03:36:09;;;;;;;8.27;2.00;;;17.80;1.00;;;;;;4979165;28;20542;-79
2023/09/20 03:38:36;;;;;;;5.30;2.13;;;17.70;1.00;;;;;;4979705;28;20485;-79
2023/09/20 03:41:06;;;;;;;2.50;1.90;;;17.80;1.00;;;;;;4980327;28;20499;-78
2023/09/20 03:43:33;;;;;;;4.57;2.03;;;17.80;1.00;;;;;;4980539;28;20456;-79
2023/09/20 03:46:01;;;;;;;5.67;2.47;;;17.70;1.00;;;;;;4980121;28;20470;-78
2023/09/20 03:48:28;;;;;;;3.43;1.60;;;17.70;1.00;;;;;;4979334;28;20476;-79
2023/09/20 03:50:56;;;;;;;4.03;2.03;;;17.70;1.00;;;;;;4973932;28;20487;-79
2023/09/20 03:53:23;;;;;;;5.67;2.10;;;17.70;1.00;;;;;;4976131;28;20457;-78
2023/09/20 03:55:52;;;;;;;4.23;2.00;;;17.70;1.00;;;;;;4979184;28;20478;-79
2023/09/20 03:58:20;;;;;;;3.40;1.70;;;17.60;1.00;;;;;;4978711;28;20477;-78
2023/09/20 04:00:47;;;;;;;4.77;1.90;;;17.60;1.00;;;;;;4978422;28;20486;-80
2023/09/20 04:03:14;;;;;;;4.57;2.07;;;17.60;1.00;;;;;;4979292;28;20471;-78
2023/09/20 04:05:41;;;;;;;4.10;1.53;;;17.60;1.00;;;;;;4972892;28;20852;-79
2023/09/20 04:08:09;;;;;;;4.40;2.00;;;17.60;1.00;;;;;;4978394;28;20464;-78
2023/09/20 04:10:36;;;;;;;4.77;1.73;;;17.70;1.00;;;;;;4978856;28;20830;-79
2023/09/20 04:13:03;;;;;;;8.93;2.30;;;17.70;1.00;;;;;;4978030;28;20461;-78
2023/09/20 04:15:30;;;;;;;2.87;1.80;;;17.70;1.00;;;;;;4980939;28;20462;-78
2023/09/20 04:17:57;;;;;;;4.83;1.80;;;17.70;1.00;;;;;;4978147;28;20966;-79
2023/09/20 04:20:24;;;;;;;5.83;2.20;;;17.70;1.00;;;;;;4976773;28;20521;-79
2023/09/20 04:22:52;;;;;;;4.30;2.67;;;17.70;1.00;;;;;;4974029;28;20471;-79
2023/09/20 04:25:20;;;;;;;4.63;2.10;;;17.70;1.00;;;;;;4984244;28;20461;-78
2023/09/20 04:27:47;;;;;;;6.70;2.20;;;17.60;1.00;;;;;;4978338;28;20907;-80
2023/09/20 04:30:16;;;;;;;7.80;2.40;;;17.60;1.00;;;;;;4978279;28;20483;-78
2023/09/20 04:32:42;;;;;;;4.00;2.07;;;17.60;1.00;;;;;;4979261;28;20468;-78
2023/09/20 04:35:09;;;;;;;5.47;2.30;;;17.70;1.00;;;;;;4978962;28;20469;-78
2023/09/20 04:37:36;;;;;;;2.90;1.63;;;17.80;1.00;;;;;;4978676;28;21052;-79
2023/09/20 04:40:04;;;;;;;3.17;1.60;;;17.70;1.00;;;;;;4978761;28;20485;-77
2023/09/20 04:42:33;;;;;;;2.90;1.67;;;17.70;1.00;;;;;;4977215;28;20501;-79
2023/09/20 04:45:00;;;;;;;3.90;1.53;;;17.70;1.00;;;;;;4979803;28;20458;-79
2023/09/20 04:47:28;;;;;;;3.63;1.90;;;17.70;1.00;;;;;;4978442;28;20466;-79
2023/09/20 04:49:55;;;;;;;3.80;1.67;;;17.80;1.00;;;;;;4979206;28;20930;-78
2023/09/20 04:52:22;;;;;;;3.80;1.90;;;17.80;1.00;;;;;;4979511;28;20457;-78
2023/09/20 04:54:49;;;;;;;6.53;2.37;;;17.80;1.00;;;;;;4981988;28;20469;-78
2023/09/20 04:57:17;;;;;;;3.77;1.80;;;17.80;1.00;;;;;;4980492;28;20465;-77
2023/09/20 04:59:46;;;;;;;5.50;2.13;;;17.80;1.00;;;;;;4974273;28;20478;-78
2023/09/20 05:02:13;;;;;;;5.53;2.70;;;17.80;1.00;;;;;;4980268;28;20501;-79
2023/09/20 05:04:40;;;;;;;5.27;2.13;;;17.80;1.00;;;;;;4981548;28;20550;-78
2023/09/20 05:07:07;;;;;;;4.70;1.67;;;17.80;1.00;;;;;;4983280;28;20521;-78
2023/09/20 05:09:35;;;;;;;5.20;1.70;;;17.90;1.00;;;;;;4979386;28;20840;-79
2023/09/20 05:12:03;;;;;;;4.10;2.03;;;17.80;1.00;;;;;;4980978;28;20457;-78
2023/09/20 05:14:29;;;;;;;4.53;2.40;;;17.80;1.00;;;;;;4979811;28;20465;-78
2023/09/20 05:16:57;;;;;;;3.93;1.87;;;17.80;1.00;;;;;;4982172;28;20457;-78
2023/09/20 05:19:24;;;;;;;3.90;1.80;;;17.90;1.00;;;;;;4983105;28;20474;-78
2023/09/20 05:21:51;;;;;;;3.90;1.90;;;17.90;1.00;;;;;;4980904;28;20494;-78
2023/09/20 05:24:18;;;;;;;5.90;2.00;;;17.80;1.00;;;;;;4979469;28;20963;-79
2023/09/20 05:26:45;;;;;;;6.17;1.97;;;17.80;1.00;;;;;;4978625;28;20455;-78
2023/09/20 05:29:12;;;;;;;4.80;1.57;;;17.80;1.00;;;;;;4979218;28;20506;-79
2023/09/20 05:31:39;;;;;;;4.67;1.83;;;17.80;1.00;;;;;;4977526;28;20454;-77
2023/09/20 05:34:07;;;;;;;5.80;1.60;;;17.80;1.00;;;;;;4980240;28;20466;-79
2023/09/20 05:36:33;;;;;;;4.73;2.00;;;17.70;1.00;;;;;;4980531;28;20463;-78
2023/09/20 05:39:00;;;;;;;5.10;2.60;;;17.70;1.00;;;;;;4978851;28;20557;-79
2023/09/20 05:41:29;;;;;;;8.53;2.67;;;17.70;1.00;;;;;;4979739;28;20500;-78
2023/09/20 05:43:56;;;;;;;3.63;2.10;;;17.80;1.00;;;;;;4979319;28;20521;-78
2023/09/20 05:46:24;;;;;;;3.20;1.93;;;17.80;1.00;;;;;;4981267;28;20455;-79
2023/09/20 05:48:52;;;;;;;3.30;1.80;;;17.70;1.00;;;;;;4978466;28;20496;-79
2023/09/20 05:51:20;;;;;;;3.93;1.90;;;17.80;1.00;;;;;;4978651;28;20474;-79
2023/09/20 05:53:47;;;;;;;4.03;1.67;;;17.80;1.00;;;;;;4978739;28;20455;-77
2023/09/20 05:56:14;;;;;;;5.50;2.43;;;17.80;1.00;;;;;;4976626;28;21020;-78
2023/09/20 05:58:42;;;;;;;4.80;2.00;;;17.80;1.00;;;;;;4977693;28;20485;-78
2023/09/20 06:01:09;;;;;;;6.03;1.93;;;17.80;1.00;;;;;;4978052;28;20503;-79
2023/09/20 06:03:36;;;;;;;4.73;1.87;;;17.80;1.00;;;;;;4978544;28;20466;-79
2023/09/20 06:06:06;;;;;;;4.73;2.20;;;17.80;1.00;;;;;;4977585;28;20459;-80
2023/09/20 06:08:35;;;;;;;5.10;2.37;;;17.90;1.00;;;;;;4972261;28;20518;-78
2023/09/20 06:11:04;;;;;;;4.90;2.57;;;17.90;1.00;;;;;;4972238;28;20471;-80
2023/09/20 06:13:31;;;;;;;5.93;2.60;;;17.90;1.00;;;;;;4977447;28;20505;-80
2023/09/20 06:15:58;;;;;;;5.50;1.87;;;17.90;1.00;;;;;;4974215;28;20563;-79
2023/09/20 06:18:25;;;;;;;4.90;1.93;;;17.80;1.00;;;;;;4976744;28;20471;-80
2023/09/20 06:20:52;;;;;;;4.73;2.27;;;17.80;1.00;;;;;;4975934;28;20873;-79
2023/09/20 06:23:19;;;;;;;3.80;1.80;;;17.90;1.00;;;;;;4977723;28;20469;-80
2023/09/20 06:25:47;;;;;;;5.47;1.80;;;17.90;1.00;;;;;;4978497;28;20474;-80
2023/09/20 06:28:15;;;;;;;3.03;1.80;;;17.90;1.00;;;;;;4977688;28;20462;-79
2023/09/20 06:30:42;;;;;;;3.27;2.27;;;18.00;1.00;;;;;;4978195;28;20498;-80
2023/09/20 06:33:10;;;;;;;5.97;2.20;;;18.10;1.00;;;;;;4978637;28;20899;-80
2023/09/20 06:35:43;;;;;;;6.03;2.00;;;18.10;1.00;;;;;;4977972;28;20483;-79
2023/09/20 06:38:12;;;;;;;3.00;1.90;;;18.20;1.00;;;;;;4977629;28;20495;-79
2023/09/20 06:40:39;;;;;;;4.10;2.33;;;18.10;1.00;;;;;;4977249;28;20965;-79
2023/09/20 06:43:09;;;;;;;3.03;1.70;;;18.20;1.00;;;;;;4978429;28;20491;-80
2023/09/20 06:45:47;;;;;;;4.80;1.63;;;18.30;1.00;;;;;;4977252;28;20465;-80
2023/09/20 06:48:16;;;;;;;4.93;1.93;;;18.30;1.00;;;;;;4977167;28;21039;-79
2023/09/20 06:50:45;;;;;;;3.50;1.70;;;18.30;1.00;;;;;;4977171;28;20538;-81
2023/09/20 06:53:20;;;;;;;3.30;1.70;;;18.30;1.00;;;;;;4977025;28;20456;-81
2023/09/20 06:55:55;;;;;;;3.57;1.73;;;18.40;1.00;;;;;;4976180;28;20458;-79
2023/09/20 06:58:26;;;;;;;5.57;2.20;;;18.40;1.00;;;;;;4978602;28;20483;-79
2023/09/20 07:01:03;;;;;;;7.30;2.30;;;18.50;99.90;;;;;;4979648;28;20801;-78
2023/09/20 07:03:29;;;;;;;4.00;2.17;;;18.60;1.00;;;;;;4979836;28;20465;-78
2023/09/20 07:05:59;;;;;;;6.10;3.10;;;18.50;1.00;;;;;;4983741;28;20461;-79
2023/09/20 07:08:26;;;;;;;4.57;1.90;;;18.60;1.00;;;;;;4975373;28;20512;-77
2023/09/20 07:10:54;;;;;;;6.07;2.00;;;18.60;1.00;;;;;;4979366;28;20474;-79
2023/09/20 07:13:26;;;;;;;4.20;1.93;;;18.70;1.00;;;;;;4980602;28;21000;-79
2023/09/20 07:15:56;;;;;;;4.63;2.40;;;18.60;99.90;;;;;;4979043;28;20493;-80
2023/09/20 07:18:23;;;;;;;3.53;2.00;;;18.70;99.90;;;;;;4973947;28;20484;-80
2023/09/20 07:20:54;;;;;;;4.00;2.00;;;18.70;99.90;;;;;;4980589;28;20477;-80
2023/09/20 07:23:21;;;;;;;8.63;2.77;;;18.80;99.90;;;;;;4981321;28;20494;-79
2023/09/20 07:25:49;;;;;;;3.67;1.97;;;18.80;99.90;;;;;;4979157;28;20997;-79
2023/09/20 07:28:16;;;;;;;5.13;1.90;;;18.70;99.90;;;;;;4970025;28;20559;-78
2023/09/20 07:30:45;;;;;;;3.50;1.57;;;18.80;99.90;;;;;;4977196;28;20459;-78
2023/09/20 07:33:19;;;;;;;4.67;2.10;;;18.80;99.90;;;;;;4979126;28;20504;-78
2023/09/20 07:35:48;;;;;;;2.47;1.60;;;18.80;99.90;;;;;;4972774;28;20455;-79
2023/09/20 07:38:22;;;;;;;5.43;2.10;;;18.90;99.90;;;;;;4977196;28;20467;-78
2023/09/20 07:40:50;;;;;;;2.90;1.63;;;18.80;99.90;;;;;;4977566;28;20456;-78
2023/09/20 07:43:18;;;;;;;4.40;1.97;;;18.90;1.00;;;;;;4972811;28;20499;-79
2023/09/20 07:45:45;;;;;;;7.00;1.70;;;19.00;99.90;;;;;;4980761;28;20498;-79
2023/09/20 07:48:16;;;;;;;8.00;3.63;;;18.90;34.10;;;;;;4981646;28;20836;-79
2023/09/20 07:50:49;;;;;;;3.30;1.70;;;19.10;99.90;;;;;;4981220;28;20456;-78
2023/09/20 07:53:17;;;;;;;2.60;1.57;;;19.10;99.90;;;;;;4974679;28;20528;-78
2023/09/20 07:55:45;;;;;;;3.63;2.30;;;19.20;99.90;;;;;;4982735;28;20465;-80
2023/09/20 07:58:13;;;;;;;3.93;2.17;;;19.20;96.50;;;;;;4988555;28;20455;-78
2023/09/20 08:00:42;;;;;;;4.73;1.80;;;19.40;99.90;;;;;;4981774;28;20470;-78
2023/09/20 08:03:10;;;;;;;2.80;1.67;;;19.40;1.00;;;;;;4984177;28;20479;-79
2023/09/20 08:05:39;;;;;;;3.03;1.90;;;19.50;1.00;;;;;;4980926;28;20466;-78
2023/09/20 08:08:07;;;;;;;4.60;1.60;;;19.50;99.90;;;;;;4977666;28;20834;-79
2023/09/20 08:10:34;;;;;;;4.50;2.10;;;19.50;1.00;;;;;;4980919;28;20514;-80
2023/09/20 08:13:01;;;;;;;6.03;2.10;;;19.50;99.90;;;;;;4976565;28;20459;-79
2023/09/20 08:15:28;;;;;;;4.10;2.13;;;19.50;1.00;;;;;;4980875;28;20513;-79
2023/09/20 08:20:42;;;;;;;7.43;1.70;;;19.50;99.90;;;;;;4976296;28;20510;-80
2023/09/20 09:01:48;;;;;;;2.93;1.30;;;20.80;99.90;;;;;;4974350;28;20510;-79
2023/09/20 09:04:18;;;;;;;4.30;1.60;;;20.80;2.70;;;;;;4984343;28;20526;-80
2023/09/20 09:06:45;;;;;;;2.87;1.80;;;20.80;1.00;;;;;;4981037;28;20456;-79
2023/09/20 09:09:14;;;;;;;4.63;1.60;;;20.80;1.00;;;;;;4980958;28;20834;-79
2023/09/20 09:11:41;;;;;;;5.03;1.67;;;20.80;1.00;;;;;;4980683;28;20888;-79
2023/09/20 09:14:09;;;;;;;3.63;1.80;;;20.70;99.90;;;;;;4979818;28;20538;-79
2023/09/20 09:16:37;;;;;;;3.30;1.80;;;20.70;99.90;;;;;;4977606;28;20475;-79
2023/09/20 09:19:04;;;;;;;5.73;1.70;;;20.70;1.00;;;;;;4975895;28;20939;-79
2023/09/20 09:21:32;;;;;;;2.13;1.40;;;20.60;34.00;;;;;;4977199;28;20995;-79
2023/09/20 09:24:00;;;;;;;3.23;1.50;;;20.70;99.90;;;;;;4976124;28;20518;-79
2023/09/20 09:26:28;;;;;;;4.63;1.80;;;20.70;99.90;;;;;;4979745;28;20447;-79
2023/09/20 09:28:54;;;;;;;3.77;1.33;;;20.70;99.90;;;;;;4982116;28;20485;-79
2023/09/20 09:31:21;;;;;;;3.87;1.77;;;20.70;1.00;;;;;;4981536;28;20455;-78
2023/09/20 09:33:48;;;;;;;2.90;1.37;;;20.80;99.90;;;;;;4971877;28;20453;-79
2023/09/20 09:36:15;;;;;;;4.30;1.70;;;20.90;1.00;;;;;;4979753;28;20463;-78
2023/09/20 09:38:41;;;;;;;3.80;1.83;;;20.90;1.00;;;;;;4983558;28;20503;-79
2023/09/20 09:41:10;;;;;;;3.73;1.93;;;20.80;99.90;;;;;;4980540;28;20455;-78
2023/09/20 09:43:38;;;;;;;3.90;1.37;;;20.80;35.30;;;;;;4980616;28;20505;-78
2023/09/20 09:46:08;;;;;;;4.50;1.83;;;20.90;1.00;;;;;;4983925;28;20546;-78
2023/09/20 09:48:37;;;;;;;5.03;1.63;;;20.90;1.00;;;;;;4973858;28;20494;-78
2023/09/20 09:51:06;;;;;;;4.03;1.80;;;21.10;1.00;;;;;;4977357;28;20883;-79
2023/09/20 09:53:34;;;;;;;3.53;1.50;;;21.10;99.90;;;;;;4976107;28;20514;-79
2023/09/20 09:56:04;;;;;;;2.63;1.43;;;21.10;99.90;;;;;;4975412;28;20882;-78
2023/09/20 09:58:31;;;;;;;5.40;1.87;;;21.10;1.00;;;;;;4980999;28;20601;-79
2023/09/20 10:01:05;;;;;;;2.97;1.50;;;21.10;99.90;;;;;;4982818;28;20528;-78
2023/09/20 10:03:34;;;;;;;3.43;1.43;;;21.00;99.90;;;;;;4983493;28;20499;-79
2023/09/20 10:06:12;;;;;;;3.80;1.03;;;20.90;99.90;;;;;;4980411;28;20455;-78
2023/09/20 10:08:40;;;;;;;3.33;1.37;;;21.00;99.90;;;;;;4978497;28;20475;-80
2023/09/20 10:11:08;;;;;;;3.60;1.57;;;21.20;1.00;;;;;;4980140;28;20539;-80
2023/09/20 10:13:36;;;;;;;2.53;1.13;;;21.10;99.90;;;;;;4982306;28;20460;-79
2023/09/20 10:16:06;;;;;;;5.80;1.47;;;21.30;1.00;;;;;;4981221;28;20448;-79
2023/09/20 10:18:35;;;;;;;2.90;1.50;;;21.30;1.00;;;;;;4984866;28;20475;-78
2023/09/20 10:21:10;;;;;;;2.20;1.37;;;21.30;99.90;;;;;;4984878;28;20455;-78
2023/09/20 10:23:38;;;;;;;2.70;1.40;;;21.30;1.00;;;;;;4982253;28;20514;-79
2023/09/20 10:26:13;;;;;;;4.87;1.43;;;21.40;99.90;;;;;;4982453;28;20941;-77
2023/09/20 10:28:41;;;;;;;3.93;1.23;;;21.40;1.00;;;;;;4977138;28;21028;-77
2023/09/20 10:31:15;;;;;;;5.30;1.43;;;21.50;99.90;;;;;;4994082;28;20917;-77
2023/09/20 10:33:46;;;;;;;4.57;1.63;;;21.40;1.00;;;;;;4970087;28;20455;-77
2023/09/20 10:36:15;;;;;;;3.33;1.50;;;21.50;1.00;;;;;;4978607;28;20451;-79
2023/09/20 10:38:45;;;;;;;2.33;1.40;;;21.70;1.00;;;;;;4969662;28;20479;-79
2023/09/20 10:41:13;;;;;;;3.00;1.33;;;22.00;99.90;;;;;;4979399;28;20468;-77
2023/09/20 10:43:48;;;;;;;2.47;1.17;;;22.10;1.00;;;;;;4973415;28;20567;-78
2023/09/20 10:46:18;;;;;;;2.70;1.53;;;22.20;1.00;;;;;;4979944;28;20494;-78
2023/09/20 10:48:50;;;;;;;4.40;1.50;;;22.20;99.90;;;;;;4979498;28;20574;-77
2023/09/20 10:51:43;;;;;;;5.13;1.60;;;22.30;1.00;;;;;;4972098;28;20456;-78
2023/09/20 10:54:22;;;;;;;2.60;1.40;;;22.20;99.90;;;;;;4967258;28;20475;-78
2023/09/20 10:57:03;;;;;;;3.23;2.13;;;22.30;2.40;;;;;;4973428;28;20451;-79
2023/09/20 10:59:31;;;;;;;2.90;1.47;;;22.50;99.90;;;;;;4970953;28;20471;-79
2023/09/20 11:02:05;;;;;;;2.43;1.70;;;22.70;68.20;;;;;;4967923;28;21189;-80
2023/09/20 11:04:33;;;;;;;4.37;1.70;;;22.80;1.00;;;;;;4975905;28;21104;-79
2023/09/20 11:07:02;;;;;;;4.60;1.70;;;22.60;99.90;;;;;;4974936;28;20529;-79
2023/09/20 11:09:31;;;;;;;2.50;1.37;;;22.80;1.00;;;;;;4977847;28;20480;-79
2023/09/20 11:12:04;;;;;;;2.87;1.50;;;22.70;1.00;;;;;;4977383;28;20459;-78
2023/09/20 11:14:32;;;;;;;4.17;1.87;;;22.90;1.00;;;;;;4974690;28;20451;-78
2023/09/20 11:17:01;;;;;;;6.13;1.47;;;23.10;1.00;;;;;;4977156;28;20447;-78
2023/09/20 11:19:28;;;;;;;4.30;1.60;;;23.30;1.00;;;;;;4981109;28;20483;-79
2023/09/20 11:21:57;;;;;;;2.30;1.40;;;23.30;99.90;;;;;;4979511;28;20474;-80
2023/09/20 11:24:24;;;;;;;5.40;1.53;;;23.30;99.90;;;;;;4973830;28;20495;-77
2023/09/20 11:26:54;;;;;;;4.33;1.43;;;23.30;99.90;;;;;;4973119;28;20458;-78
2023/09/20 11:29:20;;;;;;;2.63;1.50;;;23.80;1.00;;;;;;4975557;28;20483;-77
2023/09/20 11:31:48;;;;;;;3.20;1.60;;;24.10;99.90;;;;;;4974169;28;20462;-78
2023/09/20 11:34:17;;;;;;;3.07;1.80;;;24.10;1.00;;;;;;4975275;28;20456;-79
2023/09/20 11:36:45;;;;;;;4.17;1.80;;;23.80;1.00;;;;;;4974107;28;20487;-78
2023/09/20 11:39:14;;;;;;;3.50;1.63;;;23.80;99.90;;;;;;4973515;28;20860;-78
2023/09/20 11:41:44;;;;;;;3.37;1.70;;;23.90;74.10;;;;;;4974697;28;20455;-79
2023/09/20 11:44:11;;;;;;;4.33;1.80;;;24.00;1.00;;;;;;4978025;28;20497;-78
2023/09/20 11:46:38;;;;;;;6.03;1.80;;;24.10;99.90;;;;;;4979034;28;20558;-78
2023/09/20 11:49:08;;;;;;;3.23;1.27;;;24.00;99.90;;;;;;4979119;28;20492;-78
2023/09/20 11:51:37;;;;;;;2.90;1.17;;;24.00;99.90;;;;;;4978413;28;20471;-78
2023/09/20 11:54:10;;;;;;;2.50;1.10;;;23.80;12.90;;;;;;4980328;28;20467;-78
2023/09/20 11:56:37;;;;;;;5.90;1.40;;;24.00;99.90;;;;;;4978464;28;20451;-78
2023/09/20 11:59:09;;;;;;;4.43;1.20;;;24.30;99.90;;;;;;4977939;28;20479;-78
2023/09/20 12:01:41;;;;;;;2.37;1.23;;;24.70;1.00;;;;;;4978092;28;20459;-77
2023/09/20 12:04:08;;;;;;;2.10;1.10;;;25.00;1.00;;;;;;4979105;28;20578;-77
2023/09/20 12:06:37;;;;;;;3.87;1.40;;;25.40;1.00;;;;;;4978962;28;20479;-79
2023/09/20 12:09:05;;;;;;;2.10;1.10;;;25.50;1.00;;;;;;4980579;28;20483;-79
2023/09/20 12:11:32;;;;;;;2.30;1.00;;;25.70;1.00;;;;;;4979911;28;20463;-77
2023/09/20 12:13:59;;;;;;;3.87;1.40;;;25.90;1.00;;;;;;4979050;28;20463;-77
2023/09/20 12:16:26;;;;;;;2.87;1.27;;;25.70;1.00;;;;;;4978125;28;20466;-78
2023/09/20 12:18:54;;;;;;;3.70;1.10;;;25.80;1.00;;;;;;4981597;28;20471;-78
2023/09/20 12:21:21;;;;;;;3.00;1.20;;;25.70;1.00;;;;;;4974072;28;20494;-78
2023/09/20 12:23:50;;;;;;;2.23;1.20;;;25.60;1.00;;;;;;4982362;28;20487;-78
2023/09/20 12:26:17;;;;;;;2.60;1.40;;;25.50;1.00;;;;;;4981533;28;20468;-79
2023/09/20 12:28:44;;;;;;;2.90;1.60;;;25.30;1.00;;;;;;4979508;28;20475;-77
2023/09/20 12:31:13;;;;;;;3.67;1.37;;;25.50;1.00;;;;;;4979721;28;20467;-77
2023/09/20 12:33:40;;;;;;;2.23;1.20;;;26.10;1.00;;;;;;4978040;28;20448;-78
2023/09/20 12:36:10;;;;;;;2.87;1.27;;;26.60;1.00;;;;;;4977288;28;20502;-78
2023/09/20 12:38:37;;;;;;;3.63;1.50;;;26.50;1.00;;;;;;4977544;28;21028;-78
2023/09/20 12:41:08;;;;;;;5.97;1.67;;;26.50;1.00;;;;;;4980806;28;20479;-78
2023/09/20 12:43:36;;;;;;;3.37;1.40;;;26.60;1.00;;;;;;4982658;28;20495;-80
2023/09/20 12:46:03;;;;;;;2.83;1.10;;;27.00;1.00;;;;;;4979242;28;20463;-77
2023/09/20 12:48:30;;;;;;;3.67;1.90;;;27.10;1.00;;;;;;4978146;28;20491;-78
2023/09/20 12:50:58;;;;;;;2.90;1.20;;;27.20;1.00;;;;;;4973105;28;20458;-78
2023/09/20 12:53:25;;;;;;;3.97;1.27;;;27.60;1.00;;;;;;4976297;28;20444;-79
2023/09/20 12:55:52;;;;;;;2.80;1.37;;;27.90;1.00;;;;;;4975895;28;20464;-77
2023/09/20 12:58:20;;;;;;;3.30;1.47;;;28.20;1.00;;;;;;4968005;28;20481;-77
2023/09/20 13:00:49;;;;;;;4.10;1.40;;;28.40;1.00;;;;;;4977476;28;20456;-81
2023/09/20 13:03:17;;;;;;;2.43;1.10;;;28.70;1.00;;;;;;4977558;28;20490;-79
2023/09/20 13:05:44;;;;;;;3.10;1.60;;;28.90;1.00;;;;;;4977171;28;20463;-77
2023/09/20 13:08:13;;;;;;;3.90;1.43;;;28.60;1.00;;;;;;4976361;28;20502;-78
2023/09/20 13:10:39;;;;;;;2.50;1.33;;;28.50;1.00;;;;;;4978552;28;20550;-78
2023/09/20 13:13:08;;;;;;;3.03;1.10;;;27.80;1.00;;;;;;4975426;28;20452;-78
2023/09/20 13:15:39;;;;;;;4.50;1.60;;;27.30;1.00;;;;;;4977872;28;20467;-79
2023/09/20 13:18:06;;;;;;;6.03;1.30;;;26.80;1.00;;;;;;4977207;28;20468;-78
2023/09/20 13:20:35;;;;;;;2.80;1.60;;;27.10;1.00;;;;;;4977650;28;20498;-78
2023/09/20 13:23:02;;;;;;;4.17;1.57;;;27.60;1.00;;;;;;4977688;28;20515;-78
2023/09/20 13:25:31;;;;;;;3.10;1.50;;;28.10;1.00;;;;;;4978173;28;20452;-77
2023/09/20 13:27:58;;;;;;;2.93;1.63;;;27.90;1.00;;;;;;4977675;28;20462;-78
2023/09/20 13:30:26;;;;;;;4.50;1.90;;;27.70;1.00;;;;;;4976393;28;20483;-78
2023/09/20 13:32:55;;;;;;;3.60;1.60;;;27.50;1.00;;;;;;4978676;28;20831;-78
2023/09/20 13:35:22;;;;;;;3.60;1.53;;;27.60;1.00;;;;;;4978927;28;20467;-78
2023/09/20 13:37:48;;;;;;;4.33;1.67;;;27.50;1.00;;;;;;4977143;28;20462;-79
2023/09/20 13:40:18;;;;;;;2.67;1.47;;;27.40;1.00;;;;;;4978518;28;20489;-79
2023/09/20 13:42:45;;;;;;;2.97;1.50;;;26.90;1.00;;;;;;4979758;28;20531;-79